createdAt,value
2022-10-05T00:00:12.782Z,97.95
2022-10-05T00:02:39.163Z,97.78
2022-10-05T00:05:12.325Z,97.68
2022-10-05T00:07:38.758Z,98.76
2022-10-05T00:10:11.557Z,98.59
2022-10-05T00:12:37.899Z,96.84
2022-10-05T00:15:10.420Z,96.95
2022-10-05T00:17:36.786Z,96.35
2022-10-05T00:20:20.588Z,95.95
2022-10-05T00:22:47.231Z,95.15
2022-10-05T00:25:18.417Z,95.63
2022-10-05T00:27:48.581Z,96.54
2022-10-05T00:30:19.654Z,97.41
2022-10-05T00:32:46.635Z,96.83
2022-10-05T00:35:13.805Z,99.70
2022-10-05T00:37:40.652Z,99.03
2022-10-05T00:40:30.428Z,97.90
2022-10-05T00:43:02.960Z,98.67
2022-10-05T00:45:32.671Z,100.00
2022-10-05T00:48:08.289Z,100.00
2022-10-05T00:50:40.758Z,100.00
2022-10-05T00:53:26.025Z,100.00
2022-10-05T00:55:52.533Z,100.00
2022-10-05T00:58:28.051Z,100.00
2022-10-05T01:01:02.604Z,100.00
2022-10-05T01:03:48.301Z,100.00
2022-10-05T01:06:33.518Z,100.00
2022-10-05T01:09:14.090Z,100.00
2022-10-05T01:11:44.876Z,100.00
2022-10-05T01:14:17.383Z,100.00
2022-10-05T01:16:58.274Z,100.00
2022-10-05T01:19:50.758Z,100.00
2022-10-05T01:22:34.531Z,100.00
2022-10-05T01:25:03.887Z,100.00
2022-10-05T01:27:48.477Z,100.00
2022-10-05T01:30:21.941Z,100.00
2022-10-05T01:33:10.497Z,100.00
2022-10-05T01:35:42.983Z,100.00
2022-10-05T01:38:09.351Z,100.00
2022-10-05T01:40:38.670Z,100.00
2022-10-05T01:43:14.251Z,100.00
2022-10-05T01:45:40.665Z,100.00
2022-10-05T01:48:27.016Z,100.00
2022-10-05T01:51:08.704Z,100.00
2022-10-05T01:53:41.391Z,100.00
2022-10-05T01:56:26.658Z,100.00
2022-10-05T01:58:53.002Z,100.00
2022-10-05T02:01:19.479Z,100.00
2022-10-05T02:04:06.165Z,100.00
2022-10-05T02:06:36.189Z,100.00
2022-10-05T02:09:05.941Z,100.00
2022-10-05T02:11:32.774Z,100.00
2022-10-05T02:14:02.384Z,100.00
2022-10-05T02:16:30.385Z,100.00
2022-10-05T02:18:59.837Z,100.00
2022-10-05T02:21:27.742Z,100.00
2022-10-05T02:23:56.456Z,100.00
2022-10-05T02:26:24.122Z,100.00
2022-10-05T02:28:53.409Z,100.00
2022-10-05T02:31:23.091Z,100.00
2022-10-05T02:33:49.519Z,100.00
2022-10-05T02:36:23.661Z,100.00
2022-10-05T02:39:09.077Z,100.00
2022-10-05T02:41:39.648Z,100.00
2022-10-05T02:44:15.429Z,100.00
2022-10-05T02:46:47.003Z,100.00
2022-10-05T02:49:33.024Z,100.00
2022-10-05T02:51:59.387Z,100.00
2022-10-05T02:54:25.733Z,100.00
2022-10-05T02:57:07.990Z,100.00
2022-10-05T02:59:34.806Z,100.00
2022-10-05T03:02:15.619Z,100.00
2022-10-05T03:04:48.356Z,100.00
2022-10-05T03:07:22.045Z,100.00
2022-10-05T03:10:01.102Z,100.00
2022-10-05T03:12:35.396Z,100.00
2022-10-05T03:15:07.952Z,100.00
2022-10-05T03:17:42.963Z,100.00
2022-10-05T03:20:19.792Z,100.00
2022-10-05T03:22:50.977Z,100.00
2022-10-05T03:25:37.568Z,100.00
2022-10-05T03:28:04.051Z,100.00
2022-10-05T03:30:36.717Z,100.00
2022-10-05T03:33:13.416Z,100.00
2022-10-05T03:35:52.930Z,100.00
2022-10-05T03:38:25.493Z,100.00
2022-10-05T03:40:58.373Z,100.00
2022-10-05T03:43:45.126Z,100.00
2022-10-05T03:46:11.597Z,100.00
2022-10-05T03:48:51.832Z,100.00
2022-10-05T03:51:31.471Z,100.00
2022-10-05T03:54:11.723Z,100.00
2022-10-05T03:56:40.924Z,100.00
2022-10-05T03:59:15.549Z,100.00
2022-10-05T04:01:45.961Z,100.00
2022-10-05T04:04:18.591Z,100.00
2022-10-05T04:06:49.724Z,100.00
2022-10-05T04:09:20.066Z,100.00
2022-10-05T04:11:52.717Z,100.00
2022-10-05T04:14:28.472Z,100.00
2022-10-05T04:16:59.580Z,100.00
2022-10-05T04:19:31.891Z,100.00
2022-10-05T04:22:07.604Z,100.00
2022-10-05T04:24:38.376Z,100.00
2022-10-05T04:27:14.624Z,100.00
2022-10-05T04:29:44.656Z,100.00
2022-10-05T04:32:30.658Z,100.00
2022-10-05T04:35:05.062Z,100.00
2022-10-05T04:37:42.178Z,100.00
2022-10-05T04:40:15.130Z,100.00
2022-10-05T04:42:50.732Z,100.00
2022-10-05T04:45:20.088Z,100.00
2022-10-05T04:47:56.002Z,100.00
2022-10-05T04:50:28.247Z,100.00
2022-10-05T04:53:05.225Z,100.00
2022-10-05T04:55:46.805Z,100.00
2022-10-05T04:58:29.253Z,100.00
2022-10-05T05:01:01.980Z,100.00
2022-10-05T05:03:37.662Z,100.00
2022-10-05T05:06:23.315Z,100.00
2022-10-05T05:08:53.406Z,100.00
2022-10-05T05:11:24.301Z,100.00
2022-10-05T05:13:57.831Z,100.00
2022-10-05T05:16:41.196Z,100.00
2022-10-05T05:19:20.613Z,100.00
2022-10-05T05:21:58.048Z,100.00
2022-10-05T05:24:34.677Z,100.00
2022-10-05T05:27:04.324Z,100.00
2022-10-05T05:29:34.134Z,100.00
2022-10-05T05:32:07.368Z,100.00
2022-10-05T05:34:48.951Z,100.00
2022-10-05T05:37:18.406Z,100.00
2022-10-05T05:40:03.956Z,100.00
2022-10-05T05:42:31.836Z,100.00
2022-10-05T05:45:03.389Z,100.00
2022-10-05T05:47:37.860Z,100.00
2022-10-05T05:50:07.280Z,100.00
2022-10-05T05:52:59.395Z,100.00
2022-10-05T05:55:32.968Z,100.00
2022-10-05T05:58:14.909Z,100.00
2022-10-05T06:00:52.463Z,100.00
2022-10-05T06:03:22.349Z,100.00
2022-10-05T06:05:49.834Z,100.00
2022-10-05T06:08:35.603Z,100.00
2022-10-05T06:11:23.485Z,100.00
2022-10-05T06:13:50.961Z,100.00
2022-10-05T06:16:20.731Z,100.00
2022-10-05T06:18:51.401Z,100.00
2022-10-05T06:21:21.895Z,100.00
2022-10-05T06:23:51.486Z,100.00
2022-10-05T06:26:24.554Z,100.00
2022-10-05T06:28:55.946Z,100.00
2022-10-05T06:31:29.674Z,100.00
2022-10-05T06:34:03.982Z,100.00
2022-10-05T06:36:40.129Z,100.00
2022-10-05T06:39:09.891Z,100.00
2022-10-05T06:41:39.447Z,100.00
2022-10-05T06:44:13.207Z,100.00
2022-10-05T06:46:55.388Z,100.00
2022-10-05T06:49:39.602Z,100.00
2022-10-05T06:52:38.120Z,100.00
2022-10-05T06:55:34.615Z,100.00
2022-10-05T06:58:27.673Z,100.00
2022-10-05T07:01:10.502Z,100.00
2022-10-05T07:03:47.687Z,100.00
2022-10-05T07:06:20.722Z,100.00
2022-10-05T07:08:47.380Z,100.00
2022-10-05T07:11:32.834Z,100.00
2022-10-05T07:14:18.657Z,100.00
2022-10-05T07:17:01.714Z,100.00
2022-10-05T07:19:40.955Z,100.00
2022-10-05T07:22:22.783Z,100.00
2022-10-05T07:24:58.116Z,100.00
2022-10-05T07:27:27.887Z,100.00
2022-10-05T07:30:00.645Z,100.00
2022-10-05T07:32:43.116Z,100.00
2022-10-05T07:35:46.996Z,100.00
2022-10-05T07:38:20.986Z,100.00
2022-10-05T07:41:13.775Z,100.00
2022-10-05T07:44:02.324Z,100.00
2022-10-05T07:46:40.021Z,100.00
2022-10-05T07:49:25.569Z,100.00
2022-10-05T07:51:55.731Z,100.00
2022-10-05T07:54:30.876Z,100.00
2022-10-05T07:57:00.462Z,100.00
2022-10-05T07:59:45.535Z,100.00
2022-10-05T08:02:17.638Z,100.00
2022-10-05T08:04:53.351Z,100.00
2022-10-05T08:07:20.237Z,100.00
2022-10-05T08:10:03.087Z,99.91
2022-10-05T08:12:37.403Z,99.52
2022-10-05T08:15:03.736Z,99.88
2022-10-05T08:18:02.504Z,99.34
2022-10-05T08:20:31.677Z,99.98
2022-10-05T08:23:01.449Z,99.49
2022-10-05T08:25:39.286Z,98.59
2022-10-05T08:28:13.657Z,98.20
2022-10-05T08:30:50.235Z,98.41
2022-10-05T08:33:18.137Z,98.53
2022-10-05T08:35:47.007Z,97.43
2022-10-05T08:38:18.446Z,97.21
2022-10-05T08:41:03.471Z,97.90
2022-10-05T08:43:48.678Z,96.88
2022-10-05T08:46:25.731Z,96.91
2022-10-05T08:49:10.939Z,96.10
2022-10-05T08:51:55.560Z,96.28
2022-10-05T08:54:38.140Z,96.41
2022-10-05T08:57:07.482Z,96.07
2022-10-05T08:59:36.950Z,95.82
2022-10-05T09:02:12.657Z,95.34
2022-10-05T09:05:05.432Z,94.87
2022-10-05T09:07:50.104Z,95.09
2022-10-05T09:10:16.456Z,94.61
2022-10-05T09:12:55.092Z,93.81
2022-10-05T09:15:48.053Z,92.81
2022-10-05T09:18:17.343Z,93.56
2022-10-05T09:20:54.146Z,92.22
2022-10-05T09:23:35.978Z,92.21
2022-10-05T09:26:21.257Z,91.46
2022-10-05T09:29:03.017Z,91.83
2022-10-05T09:31:49.903Z,92.22
2022-10-05T09:34:22.518Z,91.60
2022-10-05T09:37:01.230Z,91.64
2022-10-05T09:39:46.493Z,91.81
2022-10-05T09:42:19.051Z,92.11
2022-10-05T09:45:04.357Z,91.69
2022-10-05T09:47:33.698Z,92.23
2022-10-05T09:50:12.340Z,91.25
2022-10-05T09:52:57.517Z,90.59
2022-10-05T09:55:31.309Z,91.13
2022-10-05T09:58:03.720Z,90.48
2022-10-05T10:00:36.382Z,90.84
2022-10-05T10:03:12.149Z,91.18
2022-10-05T10:05:57.308Z,91.22
2022-10-05T10:08:40.101Z,91.47
2022-10-05T10:11:24.667Z,90.95
2022-10-05T10:14:00.365Z,91.20
2022-10-05T10:16:26.786Z,91.54
2022-10-05T10:18:56.260Z,90.43
2022-10-05T10:21:46.191Z,89.49
2022-10-05T10:24:42.412Z,90.32
2022-10-05T10:27:19.093Z,90.09
2022-10-05T10:29:57.635Z,89.53
2022-10-05T10:32:39.381Z,89.42
2022-10-05T10:35:09.142Z,89.18
2022-10-05T10:37:59.026Z,89.79
2022-10-05T10:40:33.132Z,90.00
2022-10-05T10:43:18.088Z,89.03
2022-10-05T10:45:50.733Z,87.84
2022-10-05T10:48:17.126Z,84.88
2022-10-05T10:51:09.716Z,84.70
2022-10-05T10:53:36.058Z,81.59
2022-10-05T10:56:02.429Z,82.14
2022-10-05T10:58:34.939Z,79.26
2022-10-05T11:01:16.473Z,77.93
2022-10-05T11:03:49.748Z,79.15
2022-10-05T11:06:35.110Z,77.06
2022-10-05T11:09:09.239Z,76.82
2022-10-05T11:11:54.406Z,74.58
2022-10-05T11:14:29.763Z,74.99
2022-10-05T11:17:08.291Z,75.38
2022-10-05T11:19:46.398Z,76.67
2022-10-05T11:22:25.083Z,75.95
2022-10-05T11:25:03.523Z,75.94
2022-10-05T11:27:33.777Z,76.63
2022-10-05T11:30:18.710Z,76.61
2022-10-05T11:32:48.148Z,76.74
2022-10-05T11:35:24.610Z,78.41
2022-10-05T11:38:09.791Z,76.72
2022-10-05T11:40:43.114Z,77.64
2022-10-05T11:43:25.029Z,76.83
2022-10-05T11:46:06.669Z,77.41
2022-10-05T11:48:53.269Z,76.94
2022-10-05T11:51:34.026Z,75.08
2022-10-05T11:54:19.102Z,76.23
2022-10-05T11:56:56.491Z,75.39
2022-10-05T11:59:26.601Z,76.26
2022-10-05T12:02:05.230Z,76.67
2022-10-05T12:04:34.553Z,75.20
2022-10-05T12:07:04.017Z,75.25
2022-10-05T12:09:30.448Z,74.81
2022-10-05T12:12:05.934Z,75.18
2022-10-05T12:14:36.992Z,75.68
2022-10-05T12:17:13.989Z,76.13
2022-10-05T12:19:55.324Z,75.69
2022-10-05T12:22:25.264Z,74.73
2022-10-05T12:25:10.372Z,74.17
2022-10-05T12:27:42.025Z,74.42
2022-10-05T12:30:08.483Z,74.85
2022-10-05T12:32:37.989Z,74.86
2022-10-05T12:35:11.531Z,72.51
2022-10-05T12:37:40.641Z,70.00
2022-10-05T12:40:16.216Z,71.66
2022-10-05T12:42:45.963Z,70.51
2022-10-05T12:45:30.906Z,69.30
2022-10-05T12:48:06.433Z,69.35
2022-10-05T12:50:35.288Z,67.95
2022-10-05T12:53:07.794Z,68.58
2022-10-05T12:55:46.184Z,65.96
2022-10-05T12:58:15.539Z,66.02
2022-10-05T13:00:51.784Z,66.19
2022-10-05T13:03:24.104Z,64.58
2022-10-05T13:05:53.926Z,65.02
2022-10-05T13:08:52.588Z,63.45
2022-10-05T13:11:23.563Z,64.23
2022-10-05T13:13:58.979Z,65.08
2022-10-05T13:16:28.374Z,63.39
2022-10-05T13:19:06.691Z,63.45
2022-10-05T13:21:33.089Z,64.16
2022-10-05T13:24:18.177Z,63.93
2022-10-05T13:26:48.494Z,64.80
2022-10-05T13:29:33.883Z,65.49
2022-10-05T13:32:03.536Z,65.49
2022-10-05T13:34:48.653Z,66.39
2022-10-05T13:37:22.615Z,66.41
2022-10-05T13:39:52.093Z,66.50
2022-10-05T13:42:22.666Z,66.96
2022-10-05T13:44:48.981Z,67.09
2022-10-05T13:47:21.203Z,66.38
2022-10-05T13:49:54.797Z,65.85
2022-10-05T13:52:28.525Z,63.06
2022-10-05T13:55:13.249Z,64.47
2022-10-05T13:57:58.757Z,65.73
2022-10-05T14:00:26.940Z,66.62
2022-10-05T14:02:56.229Z,66.24
2022-10-05T14:05:22.858Z,66.15
2022-10-05T14:07:49.249Z,67.15
2022-10-05T14:10:28.729Z,66.45
2022-10-05T14:12:55.453Z,65.96
2022-10-05T14:15:27.982Z,65.18
2022-10-05T14:17:54.729Z,64.85
2022-10-05T14:20:33.186Z,65.07
2022-10-05T14:23:18.463Z,64.74
2022-10-05T14:25:53.782Z,64.84
2022-10-05T14:28:20.353Z,65.15
2022-10-05T14:30:59.011Z,65.12
2022-10-05T14:33:33.326Z,65.15
2022-10-05T14:35:59.802Z,64.84
2022-10-05T14:38:32.219Z,64.17
2022-10-05T14:41:04.753Z,62.02
2022-10-05T14:43:31.260Z,61.42
2022-10-05T14:45:58.921Z,61.78
2022-10-05T14:48:28.958Z,61.83
2022-10-05T14:50:55.295Z,62.48
2022-10-05T14:53:24.883Z,62.54
2022-10-05T14:55:51.252Z,63.12
2022-10-05T14:58:23.689Z,62.97
2022-10-05T15:00:59.588Z,62.42
2022-10-05T15:03:31.221Z,61.83
2022-10-05T15:06:02.213Z,61.22
2022-10-05T15:08:45.051Z,61.01
2022-10-05T15:11:22.037Z,61.24
2022-10-05T15:13:48.852Z,61.77
2022-10-05T15:16:30.936Z,63.01
2022-10-05T15:19:04.516Z,63.65
2022-10-05T15:21:55.161Z,63.88
2022-10-05T15:24:26.638Z,64.77
2022-10-05T15:27:01.023Z,65.47
2022-10-05T15:29:51.291Z,65.77
2022-10-05T15:32:42.835Z,66.14
2022-10-05T15:35:24.623Z,66.48
2022-10-05T15:37:57.726Z,66.98
2022-10-05T15:40:28.475Z,66.85
2022-10-05T15:42:59.770Z,67.63
2022-10-05T15:45:37.482Z,67.98
2022-10-05T15:48:19.994Z,67.98
2022-10-05T15:50:55.797Z,68.52
2022-10-05T15:53:45.734Z,69.17
2022-10-05T15:56:24.431Z,67.96
2022-10-05T15:58:56.861Z,68.24
2022-10-05T16:01:40.754Z,68.64
2022-10-05T16:04:17.995Z,68.66
2022-10-05T16:07:21.198Z,69.40
2022-10-05T16:09:47.637Z,70.11
2022-10-05T16:12:20.159Z,70.60
2022-10-05T16:15:01.534Z,70.55
2022-10-05T16:17:27.890Z,70.58
2022-10-05T16:19:57.338Z,71.05
2022-10-05T16:22:39.930Z,71.18
2022-10-05T16:25:22.137Z,71.61
2022-10-05T16:28:07.032Z,72.05
2022-10-05T16:30:52.513Z,72.42
2022-10-05T16:33:26.892Z,72.77
2022-10-05T16:36:02.924Z,73.19
2022-10-05T16:38:38.718Z,73.08
2022-10-05T16:41:05.149Z,73.53
2022-10-05T16:43:41.223Z,73.48
2022-10-05T16:46:10.909Z,74.49
2022-10-05T16:48:49.676Z,75.30
2022-10-05T16:51:36.632Z,75.35
2022-10-05T16:54:14.825Z,75.56
2022-10-05T16:56:47.413Z,76.37
2022-10-05T16:59:16.877Z,76.51
2022-10-05T17:02:02.134Z,76.81
2022-10-05T17:05:04.209Z,76.70
2022-10-05T17:07:34.944Z,76.43
2022-10-05T17:10:19.867Z,74.53
2022-10-05T17:13:02.074Z,74.93
2022-10-05T17:15:50.905Z,75.06
2022-10-05T17:18:20.131Z,75.13
2022-10-05T17:20:55.693Z,75.03
2022-10-05T17:23:56.015Z,74.88
2022-10-05T17:26:32.029Z,75.32
2022-10-05T17:29:00.384Z,75.89
2022-10-05T17:31:28.920Z,76.10
2022-10-05T17:34:26.121Z,76.25
2022-10-05T17:37:15.257Z,76.36
2022-10-05T17:39:46.956Z,75.69
2022-10-05T17:42:31.590Z,75.77
2022-10-05T17:45:03.267Z,75.92
2022-10-05T17:47:52.111Z,76.06
2022-10-05T17:50:54.423Z,75.96
2022-10-05T17:53:41.579Z,75.76
2022-10-05T17:56:08.011Z,76.25
2022-10-05T17:58:35.114Z,76.28
2022-10-05T18:01:01.486Z,76.09
2022-10-05T18:03:35.069Z,75.49
2022-10-05T18:06:21.786Z,75.80
2022-10-05T18:08:48.164Z,76.04
2022-10-05T18:11:35.263Z,76.31
2022-10-05T18:14:17.901Z,76.08
2022-10-05T18:17:27.753Z,75.73
2022-10-05T18:20:13.274Z,75.72
2022-10-05T18:22:39.677Z,76.01
2022-10-05T18:25:10.392Z,76.42
2022-10-05T18:27:51.646Z,75.94
2022-10-05T18:30:20.198Z,76.05
2022-10-05T18:32:58.594Z,75.74
2022-10-05T18:35:32.930Z,76.18
2022-10-05T18:38:22.707Z,75.90
2022-10-05T18:40:55.328Z,75.53
2022-10-05T18:43:33.917Z,75.08
2022-10-05T18:46:18.303Z,75.32
2022-10-05T18:49:03.222Z,75.28
2022-10-05T18:51:35.930Z,75.31
2022-10-05T18:54:11.745Z,75.25
2022-10-05T18:56:45.404Z,74.64
2022-10-05T18:59:24.310Z,74.79
2022-10-05T19:02:10.847Z,75.12
2022-10-05T19:04:40.314Z,74.74
2022-10-05T19:07:16.549Z,74.62
2022-10-05T19:09:48.752Z,74.94
2022-10-05T19:12:21.488Z,74.80
2022-10-05T19:14:47.920Z,74.99
2022-10-05T19:17:25.301Z,75.50
2022-10-05T19:20:17.306Z,74.86
2022-10-05T19:22:55.514Z,75.60
2022-10-05T19:25:21.890Z,75.47
2022-10-05T19:28:02.650Z,75.66
2022-10-05T19:30:36.061Z,75.30
2022-10-05T19:33:21.490Z,75.55
2022-10-05T19:36:03.826Z,75.83
2022-10-05T19:38:42.538Z,75.90
2022-10-05T19:41:14.423Z,76.26
2022-10-05T19:43:46.731Z,76.59
2022-10-05T19:46:21.877Z,76.48
2022-10-05T19:48:49.858Z,76.11
2022-10-05T19:51:26.165Z,76.30
2022-10-05T19:53:55.932Z,76.45
2022-10-05T19:56:25.198Z,76.53
2022-10-05T19:58:56.438Z,76.64
2022-10-05T20:01:40.021Z,76.77
2022-10-05T20:04:07.520Z,76.88
2022-10-05T20:06:34.339Z,76.92
2022-10-05T20:09:18.300Z,77.27
2022-10-05T20:11:51.800Z,77.47
2022-10-05T20:14:19.906Z,77.65
2022-10-05T20:17:04.800Z,78.00
2022-10-05T20:19:43.114Z,78.16
2022-10-05T20:22:28.382Z,78.28
2022-10-05T20:24:56.550Z,78.65
2022-10-05T20:27:41.605Z,78.51
2022-10-05T20:30:09.444Z,78.86
2022-10-05T20:32:35.847Z,78.48
2022-10-05T20:35:02.260Z,78.86
2022-10-05T20:37:28.699Z,78.60
2022-10-05T20:39:55.086Z,78.92
2022-10-05T20:42:22.966Z,78.94
2022-10-05T20:44:54.324Z,78.79
2022-10-05T20:47:23.056Z,78.94
2022-10-05T20:49:49.441Z,79.13
2022-10-05T20:52:15.902Z,79.21
2022-10-05T20:54:42.391Z,78.89
2022-10-05T20:57:08.980Z,78.90
2022-10-05T20:59:36.127Z,78.92
2022-10-05T21:02:03.723Z,78.97
2022-10-05T21:04:40.036Z,79.16
2022-10-05T21:07:07.159Z,79.31
2022-10-05T21:09:33.651Z,79.17
2022-10-05T21:12:00.091Z,79.00
2022-10-05T21:14:30.455Z,79.57
2022-10-05T21:16:56.847Z,79.19
2022-10-05T21:19:23.290Z,79.58
2022-10-05T21:21:49.699Z,79.72
2022-10-05T21:24:17.240Z,79.66
2022-10-05T21:26:44.292Z,80.07
2022-10-05T21:29:12.921Z,80.35
2022-10-05T21:31:41.171Z,82.05
2022-10-05T21:34:08.049Z,82.75
2022-10-05T21:36:34.908Z,83.86
2022-10-05T21:39:01.496Z,84.18
2022-10-05T21:41:27.871Z,84.75
2022-10-05T21:43:54.291Z,84.86
2022-10-05T21:46:21.938Z,85.14
2022-10-05T21:48:49.245Z,88.53
2022-10-05T21:51:18.431Z,93.25
2022-10-05T21:53:50.037Z,97.81
2022-10-05T21:56:17.773Z,99.83
2022-10-05T21:58:45.925Z,100.00
2022-10-05T22:01:12.427Z,100.00
2022-10-05T22:03:39.157Z,100.00
2022-10-05T22:06:05.700Z,100.00
2022-10-05T22:08:34.944Z,100.00
2022-10-05T22:11:08.807Z,100.00
2022-10-05T22:13:42.871Z,100.00
2022-10-05T22:16:10.057Z,99.08
2022-10-05T22:18:36.474Z,98.94
2022-10-05T22:21:04.028Z,99.76
2022-10-05T22:23:30.409Z,99.04
2022-10-05T22:25:56.766Z,99.71
2022-10-05T22:28:23.135Z,98.59
2022-10-05T22:30:49.642Z,98.38
2022-10-05T22:33:16.470Z,98.18
2022-10-05T22:35:43.061Z,97.13
2022-10-05T22:38:09.516Z,97.69
2022-10-05T22:40:36.312Z,98.51
2022-10-05T22:43:02.779Z,98.88
2022-10-05T22:45:32.426Z,97.75
2022-10-05T22:47:59.084Z,97.73
2022-10-05T22:50:25.490Z,98.02
2022-10-05T22:52:54.884Z,98.22
2022-10-05T22:55:21.334Z,99.35
2022-10-05T22:57:49.163Z,98.67
2022-10-05T23:00:16.050Z,98.99
2022-10-05T23:02:43.335Z,97.65
2022-10-05T23:05:13.104Z,98.50
2022-10-05T23:07:41.008Z,98.79
2022-10-05T23:10:08.726Z,100.00
2022-10-05T23:12:35.089Z,100.00
2022-10-05T23:15:01.703Z,100.00
2022-10-05T23:17:28.384Z,99.87
2022-10-05T23:19:54.746Z,100.00
2022-10-05T23:22:21.557Z,100.00
2022-10-05T23:24:47.978Z,100.00
2022-10-05T23:27:14.406Z,100.00
2022-10-05T23:29:40.773Z,100.00
2022-10-05T23:32:07.917Z,100.00
2022-10-05T23:34:34.274Z,100.00
2022-10-05T23:37:00.638Z,100.00
2022-10-05T23:39:27.001Z,100.00
2022-10-05T23:41:53.350Z,100.00
2022-10-05T23:44:20.485Z,100.00
2022-10-05T23:46:46.912Z,100.00
2022-10-05T23:49:14.724Z,100.00
2022-10-05T23:51:41.174Z,100.00
2022-10-05T23:54:07.626Z,100.00
2022-10-05T23:56:33.993Z,100.00
2022-10-05T23:59:00.380Z,100.00
